createdAt,value
2023-04-09T00:02:16.792Z,100630.66
2023-04-09T00:04:46.062Z,100629.28
2023-04-09T00:07:12.553Z,100633.88
2023-04-09T00:09:41.388Z,100625.44
2023-04-09T00:12:07.971Z,100628.63
2023-04-09T00:14:36.739Z,100630.53
2023-04-09T00:17:03.335Z,100631.53
2023-04-09T00:19:29.920Z,100630.53
2023-04-09T00:21:56.813Z,100632.28
2023-04-09T00:24:28.258Z,100627.19
2023-04-09T00:26:54.819Z,100634.03
2023-04-09T00:29:21.425Z,100629.97
2023-04-09T00:31:48.165Z,100628.06
2023-04-09T00:34:14.850Z,100623.69
2023-04-09T00:36:41.418Z,100624.81
2023-04-09T00:39:10.462Z,100622.09
2023-04-09T00:41:39.498Z,100627.31
2023-04-09T00:44:08.342Z,100625.31
2023-04-09T00:46:34.900Z,100626.38
2023-04-09T00:49:01.483Z,100622.59
2023-04-09T00:51:35.939Z,100625.31
2023-04-09T00:54:04.697Z,100616.69
2023-04-09T00:56:31.507Z,100629.34
2023-04-09T00:59:00.765Z,100623.25
2023-04-09T01:01:29.559Z,100627.31
2023-04-09T01:03:58.954Z,100619.84
2023-04-09T01:06:37.975Z,100626.38
2023-04-09T01:09:07.596Z,100628.91
2023-04-09T01:11:42.214Z,100628.75
2023-04-09T01:14:24.883Z,100628.72
2023-04-09T01:17:00.196Z,100620.88
2023-04-09T01:19:29.719Z,100624.94
2023-04-09T01:21:57.856Z,100620.88
2023-04-09T01:24:27.472Z,100624.28
2023-04-09T01:27:03.088Z,100618.03
2023-04-09T01:29:35.741Z,100622.25
2023-04-09T01:32:03.746Z,100627.97
2023-04-09T01:34:33.601Z,100623.03
2023-04-09T01:37:03.446Z,100632.22
2023-04-09T01:39:33.293Z,100629.09
2023-04-09T01:42:00.915Z,100634.47
2023-04-09T01:44:28.201Z,100630.50
2023-04-09T01:46:56.144Z,100626.75
2023-04-09T01:49:23.391Z,100623.19
2023-04-09T01:51:50.513Z,100628.75
2023-04-09T01:54:17.129Z,100624.63
2023-04-09T01:56:48.238Z,100625.34
2023-04-09T01:59:15.231Z,100625.19
2023-04-09T02:01:49.182Z,100620.28
2023-04-09T02:04:25.738Z,100619.00
2023-04-09T02:06:55.338Z,100623.91
2023-04-09T02:09:24.693Z,100622.16
2023-04-09T02:11:52.296Z,100617.38
2023-04-09T02:14:21.920Z,100618.75
2023-04-09T02:16:48.594Z,100619.47
2023-04-09T02:19:18.128Z,100621.25
2023-04-09T02:21:49.477Z,100618.72
2023-04-09T02:24:16.073Z,100620.47
2023-04-09T02:26:42.632Z,100628.50
2023-04-09T02:29:09.200Z,100624.06
2023-04-09T02:31:35.854Z,100610.09
2023-04-09T02:34:04.531Z,100610.66
2023-04-09T02:36:36.232Z,100614.31
2023-04-09T02:39:02.792Z,100613.91
2023-04-09T02:41:29.335Z,100619.00
2023-04-09T02:43:55.946Z,100622.84
2023-04-09T02:46:24.567Z,100623.00
2023-04-09T02:48:55.913Z,100618.63
2023-04-09T02:51:25.018Z,100615.88
2023-04-09T02:53:51.614Z,100611.84
2023-04-09T02:56:20.595Z,100616.09
2023-04-09T02:58:49.458Z,100607.50
2023-04-09T03:01:16.056Z,100607.75
2023-04-09T03:03:43.267Z,100619.00
2023-04-09T03:06:12.392Z,100614.03
2023-04-09T03:08:39.029Z,100607.47
2023-04-09T03:11:07.800Z,100613.47
2023-04-09T03:13:36.814Z,100613.31
2023-04-09T03:16:03.524Z,100608.56
2023-04-09T03:18:30.183Z,100615.06
2023-04-09T03:20:56.770Z,100616.78
2023-04-09T03:23:23.356Z,100617.69
2023-04-09T03:25:52.133Z,100612.50
2023-04-09T03:28:21.389Z,100616.16
2023-04-09T03:30:47.942Z,100616.94
2023-04-09T03:33:14.519Z,100615.16
2023-04-09T03:35:45.667Z,100619.91
2023-04-09T03:38:14.681Z,100618.72
2023-04-09T03:40:43.711Z,100620.47
2023-04-09T03:43:12.574Z,100623.28
2023-04-09T03:45:43.678Z,100624.00
2023-04-09T03:48:15.051Z,100620.47
2023-04-09T03:50:42.205Z,100614.69
2023-04-09T03:53:11.165Z,100620.47
2023-04-09T03:55:40.643Z,100626.03
2023-04-09T03:58:09.425Z,100628.09
2023-04-09T04:00:39.006Z,100634.78
2023-04-09T04:03:08.062Z,100628.03
2023-04-09T04:05:34.788Z,100634.13
2023-04-09T04:08:01.419Z,100640.44
2023-04-09T04:10:28.017Z,100628.91
2023-04-09T04:12:54.596Z,100624.13
2023-04-09T04:15:23.899Z,100634.06
2023-04-09T04:17:50.472Z,100631.84
2023-04-09T04:20:17.129Z,100633.91
2023-04-09T04:22:46.122Z,100638.69
2023-04-09T04:25:12.757Z,100634.94
2023-04-09T04:27:45.064Z,100637.19
2023-04-09T04:30:11.762Z,100644.94
2023-04-09T04:32:38.471Z,100637.78
2023-04-09T04:35:07.384Z,100642.34
2023-04-09T04:37:36.154Z,100645.16
2023-04-09T04:40:03.546Z,100651.34
2023-04-09T04:42:30.168Z,100650.88
2023-04-09T04:44:56.753Z,100650.41
2023-04-09T04:47:23.443Z,100656.56
2023-04-09T04:49:55.301Z,100653.75
2023-04-09T04:52:21.946Z,100653.00
2023-04-09T04:54:48.472Z,100654.03
2023-04-09T04:57:17.356Z,100648.94
2023-04-09T04:59:46.050Z,100652.28
2023-04-09T05:02:12.763Z,100656.59
2023-04-09T05:04:39.670Z,100655.00
2023-04-09T05:07:08.741Z,100659.81
2023-04-09T05:09:35.501Z,100661.81
2023-04-09T05:12:04.738Z,100658.09
2023-04-09T05:14:31.416Z,100659.81
2023-04-09T05:16:58.074Z,100660.69
2023-04-09T05:19:24.732Z,100663.44
2023-04-09T05:21:51.271Z,100660.78
2023-04-09T05:24:17.973Z,100658.16
2023-04-09T05:26:44.518Z,100666.59
2023-04-09T05:29:13.391Z,100676.78
2023-04-09T05:31:43.156Z,100672.06
2023-04-09T05:34:09.870Z,100672.34
2023-04-09T05:36:36.450Z,100676.19
2023-04-09T05:39:03.028Z,100671.16
2023-04-09T05:41:29.634Z,100677.41
2023-04-09T05:44:00.527Z,100676.25
2023-04-09T05:46:27.621Z,100678.41
2023-04-09T05:48:54.429Z,100683.50
2023-04-09T05:51:21.122Z,100680.13
2023-04-09T05:53:50.452Z,100682.19
2023-04-09T05:56:19.718Z,100678.81
2023-04-09T05:58:48.583Z,100678.00
2023-04-09T06:01:15.434Z,100681.22
2023-04-09T06:03:42.185Z,100681.56
2023-04-09T06:06:11.004Z,100692.22
2023-04-09T06:08:37.513Z,100681.16
2023-04-09T06:11:08.770Z,100685.88
2023-04-09T06:13:37.526Z,100682.97
2023-04-09T06:16:08.659Z,100689.63
2023-04-09T06:18:35.663Z,100688.34
2023-04-09T06:21:07.906Z,100690.84
2023-04-09T06:23:36.317Z,100685.50
2023-04-09T06:26:03.219Z,100693.78
2023-04-09T06:28:30.083Z,100684.31
2023-04-09T06:30:56.699Z,100696.69
2023-04-09T06:33:23.583Z,100682.81
2023-04-09T06:35:52.536Z,100689.47
2023-04-09T06:38:19.164Z,100687.34
2023-04-09T06:40:48.705Z,100697.69
2023-04-09T06:43:17.775Z,100693.19
2023-04-09T06:45:44.375Z,100695.53
2023-04-09T06:48:16.197Z,100688.22
2023-04-09T06:50:45.619Z,100689.06
2023-04-09T06:53:15.201Z,100688.56
2023-04-09T06:55:42.148Z,100692.03
2023-04-09T06:58:08.709Z,100702.03
2023-04-09T07:00:35.480Z,100702.25
2023-04-09T07:03:09.200Z,100700.13
2023-04-09T07:05:38.733Z,100699.38
2023-04-09T07:08:07.958Z,100714.31
2023-04-09T07:10:34.684Z,100712.56
2023-04-09T07:13:01.638Z,100706.59
2023-04-09T07:15:28.359Z,100701.38
2023-04-09T07:17:54.986Z,100706.81
2023-04-09T07:20:21.670Z,100702.78
2023-04-09T07:22:50.587Z,100718.81
2023-04-09T07:25:17.162Z,100716.06
2023-04-09T07:27:44.894Z,100719.25
2023-04-09T07:30:13.762Z,100719.84
2023-04-09T07:32:40.433Z,100725.06
2023-04-09T07:35:09.927Z,100726.28
2023-04-09T07:37:36.591Z,100712.53
2023-04-09T07:40:06.024Z,100717.47
2023-04-09T07:42:41.244Z,100721.13
2023-04-09T07:45:11.185Z,100723.34
2023-04-09T07:47:41.588Z,100721.34
2023-04-09T07:50:11.629Z,100724.69
2023-04-09T07:52:40.917Z,100727.78
2023-04-09T07:55:07.443Z,100728.59
2023-04-09T07:57:34.345Z,100730.47
2023-04-09T08:00:03.984Z,100733.72
2023-04-09T08:02:35.521Z,100732.31
2023-04-09T08:05:02.621Z,100728.78
2023-04-09T08:07:29.272Z,100737.59
2023-04-09T08:09:58.277Z,100731.88
2023-04-09T08:12:27.184Z,100733.91
2023-04-09T08:14:56.396Z,100730.38
2023-04-09T08:17:27.806Z,100730.81
2023-04-09T08:19:54.618Z,100739.28
2023-04-09T08:22:21.430Z,100734.56
2023-04-09T08:24:52.110Z,100738.31
2023-04-09T08:27:22.097Z,100736.47
2023-04-09T08:29:49.117Z,100735.19
2023-04-09T08:32:16.237Z,100744.63
2023-04-09T08:34:45.604Z,100740.78
2023-04-09T08:37:12.254Z,100749.72
2023-04-09T08:39:38.828Z,100754.13
2023-04-09T08:42:08.888Z,100749.19
2023-04-09T08:44:35.493Z,100754.22
2023-04-09T08:47:05.313Z,100753.06
2023-04-09T08:49:31.994Z,100763.41
2023-04-09T08:52:01.086Z,100755.16
2023-04-09T08:54:39.756Z,100758.91
2023-04-09T08:57:09.129Z,100765.06
2023-04-09T08:59:48.038Z,100765.13
2023-04-09T09:06:22.224Z,100774.28
2023-04-09T09:09:12.300Z,100772.59
2023-04-09T09:19:03.675Z,100771.94
2023-04-09T09:21:30.667Z,100769.72
2023-04-09T09:23:58.404Z,100768.06
2023-04-09T09:26:29.428Z,100776.53
2023-04-09T09:28:58.996Z,100773.09
2023-04-09T09:31:26.467Z,100774.59
2023-04-09T09:33:55.639Z,100769.81
2023-04-09T09:36:32.166Z,100766.09
2023-04-09T09:39:03.844Z,100769.72
2023-04-09T09:41:30.781Z,100760.47
2023-04-09T09:43:57.811Z,100758.78
2023-04-09T09:46:31.177Z,100763.50
2023-04-09T09:48:57.881Z,100761.50
2023-04-09T09:51:27.898Z,100759.94
2023-04-09T09:53:58.326Z,100761.44
2023-04-09T09:56:34.744Z,100757.59
2023-04-09T09:59:03.942Z,100761.28
2023-04-09T10:01:30.887Z,100757.50
2023-04-09T10:04:05.404Z,100755.03
2023-04-09T10:06:34.317Z,100758.75
2023-04-09T10:09:06.882Z,100758.91
2023-04-09T10:11:36.603Z,100753.75
2023-04-09T10:14:07.999Z,100764.50
2023-04-09T10:16:37.267Z,100765.97
2023-04-09T10:19:08.231Z,100760.00
2023-04-09T10:22:05.719Z,100764.88
2023-04-09T10:24:35.681Z,100757.34
2023-04-09T10:27:17.078Z,100766.81
2023-04-09T10:29:45.890Z,100763.53
2023-04-09T10:32:13.868Z,100763.41
2023-04-09T10:34:43.939Z,100761.16
2023-04-09T10:37:31.836Z,100759.00
2023-04-09T10:39:58.822Z,100750.91
2023-04-09T10:42:43.184Z,100761.19
2023-04-09T10:45:11.924Z,100759.13
2023-04-09T10:47:46.641Z,100756.78
2023-04-09T10:50:16.613Z,100768.06
2023-04-09T10:52:45.791Z,100756.03
2023-04-09T10:55:31.540Z,100757.56
2023-04-09T10:58:00.933Z,100750.63
2023-04-09T11:00:27.541Z,100748.75
2023-04-09T11:03:03.052Z,100755.97
2023-04-09T11:05:43.372Z,100743.44
2023-04-09T11:08:09.985Z,100748.44
2023-04-09T11:10:38.090Z,100748.22
2023-04-09T11:13:05.867Z,100745.50
2023-04-09T11:15:37.581Z,100736.16
2023-04-09T11:18:06.908Z,100740.06
2023-04-09T11:20:36.785Z,100734.78
2023-04-09T11:23:06.557Z,100739.72
2023-04-09T11:25:35.115Z,100735.06
2023-04-09T11:28:04.349Z,100742.34
2023-04-09T11:30:31.422Z,100741.16
2023-04-09T11:33:00.807Z,100751.66
2023-04-09T11:35:27.454Z,100747.72
2023-04-09T11:37:54.218Z,100737.41
2023-04-09T11:40:23.688Z,100745.03
2023-04-09T11:42:57.677Z,100737.81
2023-04-09T11:45:33.631Z,100736.44
2023-04-09T11:48:02.034Z,100736.31
2023-04-09T11:50:31.585Z,100733.66
2023-04-09T11:52:58.307Z,100732.84
2023-04-09T11:55:27.414Z,100730.03
2023-04-09T11:58:01.210Z,100735.16
2023-04-09T12:00:34.736Z,100733.97
2023-04-09T12:03:06.449Z,100732.25
2023-04-09T12:05:37.157Z,100740.28
2023-04-09T12:08:08.626Z,100741.09
2023-04-09T12:10:38.778Z,100729.94
2023-04-09T12:13:10.582Z,100740.50
2023-04-09T12:15:43.516Z,100735.56
2023-04-09T12:18:16.414Z,100735.66
2023-04-09T12:20:47.792Z,100734.69
2023-04-09T12:23:14.754Z,100732.78
2023-04-09T12:25:45.733Z,100738.03
2023-04-09T12:28:18.598Z,100735.28
2023-04-09T12:30:49.146Z,100730.00
2023-04-09T12:33:15.902Z,100731.59
2023-04-09T12:35:47.278Z,100731.88
2023-04-09T12:38:18.708Z,100722.66
2023-04-09T12:40:45.460Z,100724.56
2023-04-09T12:43:14.399Z,100722.75
2023-04-09T12:45:41.062Z,100714.28
2023-04-09T12:48:08.158Z,100719.69
2023-04-09T12:50:39.737Z,100711.31
2023-04-09T12:53:12.012Z,100713.34
2023-04-09T12:55:39.478Z,100709.66
2023-04-09T12:58:07.538Z,100710.06
2023-04-09T13:00:34.437Z,100714.56
2023-04-09T13:03:01.337Z,100708.31
2023-04-09T13:05:31.525Z,100697.25
2023-04-09T13:07:58.135Z,100696.78
2023-04-09T13:10:27.855Z,100700.06
2023-04-09T13:12:57.118Z,100695.94
2023-04-09T13:15:57.794Z,100688.03
2023-04-09T13:18:24.426Z,100686.34
2023-04-09T13:20:57.966Z,100687.63
2023-04-09T13:23:27.103Z,100680.03
2023-04-09T13:25:53.543Z,100689.00
2023-04-09T13:28:20.273Z,100689.53
2023-04-09T13:30:53.618Z,100680.13
2023-04-09T13:33:24.861Z,100685.44
2023-04-09T13:35:51.716Z,100676.47
2023-04-09T13:38:18.462Z,100683.13
2023-04-09T13:40:45.227Z,100677.69
2023-04-09T13:43:14.387Z,100680.41
2023-04-09T13:45:40.926Z,100678.84
2023-04-09T13:48:07.585Z,100672.28
2023-04-09T13:50:34.314Z,100676.16
2023-04-09T13:53:05.560Z,100666.59
2023-04-09T13:55:34.854Z,100663.63
2023-04-09T13:58:01.492Z,100663.63
2023-04-09T14:00:28.109Z,100667.47
2023-04-09T14:02:54.789Z,100652.28
2023-04-09T14:05:21.411Z,100663.31
2023-04-09T14:07:50.942Z,100660.78
2023-04-09T14:10:17.919Z,100655.53
2023-04-09T14:12:44.513Z,100649.97
2023-04-09T14:15:16.411Z,100659.53
2023-04-09T14:17:46.126Z,100650.19
2023-04-09T14:20:12.925Z,100651.38
2023-04-09T14:22:39.799Z,100648.03
2023-04-09T14:25:09.069Z,100645.78
2023-04-09T14:27:35.716Z,100642.44
2023-04-09T14:30:03.558Z,100645.75
2023-04-09T14:32:30.450Z,100643.06
2023-04-09T14:34:57.070Z,100649.00
2023-04-09T14:37:26.290Z,100640.63
2023-04-09T14:39:52.910Z,100641.22
2023-04-09T14:42:19.554Z,100646.09
2023-04-09T14:44:46.139Z,100630.31
2023-04-09T14:47:16.123Z,100638.69
2023-04-09T14:49:45.232Z,100637.13
2023-04-09T14:52:14.228Z,100640.28
2023-04-09T14:54:43.778Z,100638.00
2023-04-09T14:57:10.389Z,100632.00
2023-04-09T14:59:36.988Z,100637.63
2023-04-09T15:02:03.796Z,100640.97
2023-04-09T15:04:35.463Z,100632.13
2023-04-09T15:07:05.521Z,100628.63
2023-04-09T15:09:36.784Z,100634.09
2023-04-09T15:12:09.609Z,100625.44
2023-04-09T15:14:36.749Z,100628.59
2023-04-09T15:17:03.461Z,100625.34
2023-04-09T15:19:31.866Z,100628.16
2023-04-09T15:21:58.483Z,100631.84
2023-04-09T15:24:25.835Z,100631.53
2023-04-09T15:26:57.896Z,100628.81
2023-04-09T15:29:26.726Z,100633.97
2023-04-09T15:31:53.491Z,100632.50
2023-04-09T15:34:20.534Z,100633.22
2023-04-09T15:36:47.553Z,100635.88
2023-04-09T15:39:14.238Z,100630.34
2023-04-09T15:41:40.874Z,100633.91
2023-04-09T15:44:09.668Z,100634.59
2023-04-09T15:46:38.018Z,100631.78
2023-04-09T15:49:05.061Z,100631.69
2023-04-09T15:51:31.750Z,100637.28
2023-04-09T15:53:59.366Z,100634.84
2023-04-09T15:56:25.964Z,100633.81
2023-04-09T15:58:55.191Z,100629.56
2023-04-09T16:01:24.342Z,100623.34
2023-04-09T16:03:53.255Z,100625.94
2023-04-09T16:06:20.054Z,100630.06
2023-04-09T16:08:48.997Z,100629.28
2023-04-09T16:11:15.685Z,100631.88
2023-04-09T16:13:47.062Z,100626.56
2023-04-09T16:16:16.147Z,100631.84
2023-04-09T16:18:42.675Z,100634.34
2023-04-09T16:21:09.364Z,100637.59
2023-04-09T16:23:36.000Z,100633.13
2023-04-09T16:26:04.991Z,100644.53
2023-04-09T16:28:31.647Z,100632.31
2023-04-09T16:31:00.001Z,100637.50
2023-04-09T16:33:26.726Z,100638.97
2023-04-09T16:35:53.357Z,100632.94
2023-04-09T16:38:20.072Z,100641.66
2023-04-09T16:40:46.741Z,100639.94
2023-04-09T16:43:13.306Z,100646.91
2023-04-09T16:45:44.703Z,100641.28
2023-04-09T16:48:13.625Z,100647.44
2023-04-09T16:50:40.465Z,100652.84
2023-04-09T16:53:07.842Z,100643.22
2023-04-09T16:55:34.996Z,100647.34
2023-04-09T16:58:01.755Z,100650.00
2023-04-09T17:00:28.491Z,100644.91
2023-04-09T17:03:00.335Z,100646.38
2023-04-09T17:05:29.314Z,100654.28
2023-04-09T17:07:58.197Z,100653.81
2023-04-09T17:10:27.941Z,100648.03
2023-04-09T17:12:54.794Z,100645.31
2023-04-09T17:15:25.112Z,100650.13
2023-04-09T17:17:53.692Z,100649.88
2023-04-09T17:20:24.290Z,100645.13
2023-04-09T17:22:53.144Z,100646.44
2023-04-09T17:25:22.542Z,100651.56
2023-04-09T17:27:49.139Z,100654.09
2023-04-09T17:30:18.793Z,100649.53
2023-04-09T17:32:45.905Z,100651.41
2023-04-09T17:35:12.699Z,100657.34
2023-04-09T17:37:41.548Z,100655.41
2023-04-09T17:40:08.861Z,100658.00
2023-04-09T17:42:41.308Z,100665.66
2023-04-09T17:45:11.850Z,100661.31
2023-04-09T17:47:41.471Z,100658.47
2023-04-09T17:50:08.725Z,100656.53
2023-04-09T17:52:38.742Z,100668.03
2023-04-09T17:55:12.456Z,100667.09
2023-04-09T17:57:42.886Z,100675.22
2023-04-09T18:00:10.440Z,100677.72
2023-04-09T18:02:40.153Z,100678.59
2023-04-09T18:05:10.835Z,100682.16
2023-04-09T18:07:42.380Z,100679.41
2023-04-09T18:10:09.233Z,100685.88
2023-04-09T18:12:35.917Z,100683.91
2023-04-09T18:15:03.645Z,100689.00
2023-04-09T18:17:30.390Z,100685.88
2023-04-09T18:19:59.992Z,100693.53
2023-04-09T18:22:29.157Z,100686.28
2023-04-09T18:24:55.983Z,100698.69
2023-04-09T18:27:27.358Z,100703.41
2023-04-09T18:29:53.986Z,100703.19
2023-04-09T18:32:23.636Z,100698.44
2023-04-09T18:34:50.298Z,100705.06
2023-04-09T18:37:17.283Z,100705.66
2023-04-09T18:39:44.284Z,100704.72
2023-04-09T18:42:10.889Z,100708.13
2023-04-09T18:44:37.709Z,100707.53
2023-04-09T18:47:05.931Z,100705.09
2023-04-09T18:49:33.448Z,100705.22
2023-04-09T18:52:05.393Z,100713.25
2023-04-09T18:54:34.950Z,100706.63
2023-04-09T18:57:04.200Z,100716.88
2023-04-09T18:59:31.616Z,100713.00
2023-04-09T19:02:05.058Z,100714.19
2023-04-09T19:04:39.608Z,100717.38
2023-04-09T19:07:06.730Z,100715.34
2023-04-09T19:09:33.616Z,100721.63
2023-04-09T19:12:02.722Z,100716.31
2023-04-09T19:14:33.863Z,100724.00
2023-04-09T19:17:02.462Z,100726.00
2023-04-09T19:19:32.483Z,100710.03
2023-04-09T19:21:59.465Z,100713.19
2023-04-09T19:24:26.163Z,100716.84
2023-04-09T19:26:53.360Z,100722.44
2023-04-09T19:29:20.311Z,100720.94
2023-04-09T19:31:49.893Z,100719.47
2023-04-09T19:34:18.737Z,100724.31
2023-04-09T19:36:45.369Z,100722.94
2023-04-09T19:39:17.235Z,100718.84
2023-04-09T19:41:43.810Z,100718.19
2023-04-09T19:44:12.971Z,100720.69
2023-04-09T19:46:39.586Z,100726.06
2023-04-09T19:49:06.369Z,100727.72
2023-04-09T19:51:33.648Z,100723.78
2023-04-09T19:54:00.637Z,100722.59
2023-04-09T19:56:29.627Z,100725.19
2023-04-09T19:58:56.407Z,100726.31
2023-04-09T20:01:25.329Z,100723.44
2023-04-09T20:03:52.293Z,100718.31
2023-04-09T20:06:21.931Z,100726.63
2023-04-09T20:08:51.135Z,100717.66
2023-04-09T20:11:36.541Z,100726.66
2023-04-09T20:18:12.856Z,100727.81
2023-04-09T20:20:48.176Z,100733.22
2023-04-09T20:27:04.727Z,100719.28
2023-04-09T20:35:58.872Z,100726.50
2023-04-09T20:38:25.678Z,100729.44
2023-04-09T20:40:57.132Z,100729.44
2023-04-09T20:47:12.398Z,100731.13
2023-04-09T20:56:13.128Z,100728.88
2023-04-09T20:58:39.842Z,100732.47
2023-04-09T21:01:10.370Z,100732.09
2023-04-09T21:03:46.138Z,100728.72
2023-04-09T21:06:25.593Z,100733.22
2023-04-09T21:08:58.676Z,100730.69
2023-04-09T21:11:35.739Z,100726.97
2023-04-09T21:14:13.525Z,100731.09
2023-04-09T21:16:43.210Z,100726.50
2023-04-09T21:19:12.937Z,100721.78
2023-04-09T21:21:48.798Z,100726.28
2023-04-09T21:24:23.369Z,100731.34
2023-04-09T21:26:55.647Z,100724.00
2023-04-09T21:29:22.496Z,100727.56
2023-04-09T21:31:49.810Z,100725.34
2023-04-09T21:34:16.580Z,100720.31
2023-04-09T21:36:46.230Z,100720.13
2023-04-09T21:39:13.106Z,100717.41
2023-04-09T21:41:39.676Z,100718.09
2023-04-09T21:44:08.701Z,100716.19
2023-04-09T21:46:41.764Z,100722.63
2023-04-09T21:49:08.435Z,100724.84
2023-04-09T21:51:35.500Z,100723.72
2023-04-09T21:54:09.781Z,100728.84
2023-04-09T21:56:38.853Z,100723.66
2023-04-09T21:59:07.678Z,100723.91
2023-04-09T22:01:36.602Z,100723.22
2023-04-09T22:04:03.743Z,100726.69
2023-04-09T22:06:33.196Z,100723.00
2023-04-09T22:09:02.455Z,100722.81
2023-04-09T22:11:31.803Z,100731.00
2023-04-09T22:14:00.757Z,100726.28
2023-04-09T22:16:29.834Z,100724.56
2023-04-09T22:18:57.056Z,100729.94
2023-04-09T22:21:24.080Z,100736.19
2023-04-09T22:23:53.052Z,100728.91
2023-04-09T22:26:20.031Z,100732.97
2023-04-09T22:29:08.333Z,100728.66
2023-04-09T22:31:34.937Z,100732.31
2023-04-09T22:34:17.199Z,100735.00
2023-04-09T22:36:47.125Z,100732.84
2023-04-09T22:39:16.388Z,100734.59
2023-04-09T22:41:44.964Z,100735.34
2023-04-09T22:44:11.770Z,100731.09
2023-04-09T22:46:40.886Z,100734.88
2023-04-09T22:49:08.195Z,100729.53
2023-04-09T22:51:35.098Z,100736.19
2023-04-09T22:54:02.452Z,100730.78
2023-04-09T22:56:33.238Z,100732.38
2023-04-09T22:59:00.057Z,100730.22
2023-04-09T23:01:27.163Z,100731.53
2023-04-09T23:03:54.064Z,100730.44
2023-04-09T23:06:25.747Z,100728.56
2023-04-09T23:08:52.807Z,100728.63
2023-04-09T23:11:19.912Z,100722.50
2023-04-09T23:13:48.974Z,100721.47
2023-04-09T23:16:15.888Z,100727.00
2023-04-09T23:18:42.541Z,100730.38
2023-04-09T23:21:12.644Z,100728.19
2023-04-09T23:23:39.364Z,100726.28
2023-04-09T23:26:06.593Z,100729.94
2023-04-09T23:28:33.375Z,100722.09
2023-04-09T23:31:02.287Z,100725.56
2023-04-09T23:33:28.979Z,100729.06
2023-04-09T23:35:55.699Z,100726.16
2023-04-09T23:38:24.471Z,100719.59
2023-04-09T23:40:51.250Z,100724.84
2023-04-09T23:43:20.355Z,100717.31
2023-04-09T23:45:47.197Z,100721.16
2023-04-09T23:48:16.294Z,100723.94
2023-04-09T23:50:42.925Z,100720.72
2023-04-09T23:53:11.970Z,100720.28
2023-04-09T23:55:42.472Z,100723.25
2023-04-09T23:58:09.890Z,100729.72
